Dunedin, New Zealand
Current Conditions -  °F | °C
As of 1:30 PM on Friday 28 Nov 2014 (Local Time) from NZCH Reporting Station
Light Rain Light Rain  
Wind Chill: 50°   Ceiling: 6000
Heat Index: 50°   Visibility: 6mi
Dew Point: 46°   Wind: 5mph
Humidity: 87%   Direction: 40°NE
Pressure: 29.62"   Gusts: NA
Location:  45.52°S, 170.3°E
Report Text: NZCH 280130Z AUTO 04004KT 360V070 9999 -RA FEW049/// OVC060///10/08 Q1003 TEMPO TL0200 6000 SHRA FEW020CB
Loading
Personal Weather Stations






























Interactive Weather Map New forecast layout! Learn more

10-Day Weather Forecast

Advertisements
Track Severe Weather on mobile